createdAt,value
2022-11-17T00:00:46.471Z,92.95
2022-11-17T00:03:16.249Z,93.01
2022-11-17T00:05:45.537Z,92.62
2022-11-17T00:08:14.521Z,92.62
2022-11-17T00:10:44.628Z,92.54
2022-11-17T00:13:30.994Z,92.17
2022-11-17T00:15:59.870Z,92.07
2022-11-17T00:18:46.276Z,92.00
2022-11-17T00:21:21.812Z,92.10
2022-11-17T00:23:51.079Z,91.46
2022-11-17T00:26:23.757Z,91.87
2022-11-17T00:28:55.045Z,92.18
2022-11-17T00:31:42.960Z,92.23
2022-11-17T00:34:17.043Z,92.66
2022-11-17T00:36:48.377Z,92.16
2022-11-17T00:39:19.687Z,91.91
2022-11-17T00:41:49.887Z,92.07
2022-11-17T00:44:19.090Z,92.03
2022-11-17T00:46:48.604Z,92.77
2022-11-17T00:49:17.917Z,92.04
2022-11-17T00:51:46.769Z,93.19
2022-11-17T00:54:15.832Z,92.46
2022-11-17T00:56:44.614Z,92.56
2022-11-17T00:59:14.798Z,92.66
2022-11-17T01:01:44.556Z,92.33
2022-11-17T01:04:15.031Z,92.49
2022-11-17T01:06:46.844Z,92.12
2022-11-17T01:09:19.784Z,91.77
2022-11-17T01:11:49.737Z,91.39
2022-11-17T01:14:25.679Z,91.43
2022-11-17T01:16:55.857Z,91.28
2022-11-17T01:19:25.951Z,90.92
2022-11-17T01:21:54.711Z,91.49
2022-11-17T01:24:23.428Z,90.89
2022-11-17T01:26:52.348Z,91.07
2022-11-17T01:29:22.621Z,91.63
2022-11-17T01:31:53.502Z,90.60
2022-11-17T01:34:22.237Z,91.98
2022-11-17T01:37:08.588Z,92.36
2022-11-17T01:39:37.343Z,91.82
2022-11-17T01:42:14.296Z,92.01
2022-11-17T01:45:21.376Z,92.35
2022-11-17T01:47:55.781Z,92.31
2022-11-17T01:50:34.751Z,91.76
2022-11-17T01:53:11.444Z,91.77
2022-11-17T01:55:49.221Z,92.07
2022-11-17T01:58:24.652Z,91.08
2022-11-17T02:00:56.751Z,91.16
2022-11-17T02:03:28.694Z,91.28
2022-11-17T02:06:08.006Z,91.96
2022-11-17T02:08:41.272Z,92.80
2022-11-17T02:11:16.447Z,92.38
2022-11-17T02:13:46.885Z,92.31
2022-11-17T02:16:18.862Z,92.85
2022-11-17T02:18:49.600Z,92.18
2022-11-17T02:22:09.389Z,92.08
2022-11-17T02:25:27.040Z,92.19
2022-11-17T02:28:12.128Z,92.81
2022-11-17T02:30:53.629Z,92.87
2022-11-17T02:33:38.703Z,92.64
2022-11-17T02:36:19.056Z,92.15
2022-11-17T02:39:00.802Z,91.96
2022-11-17T02:41:39.237Z,91.81
2022-11-17T02:44:16.851Z,92.00
2022-11-17T02:46:50.859Z,91.53
2022-11-17T02:49:26.648Z,90.96
2022-11-17T02:51:59.325Z,90.80
2022-11-17T02:54:32.519Z,91.58
2022-11-17T02:57:01.364Z,91.42
2022-11-17T02:59:35.403Z,91.69
2022-11-17T03:02:36.746Z,91.13
2022-11-17T03:05:17.617Z,91.43
2022-11-17T03:08:07.882Z,91.85
2022-11-17T03:10:50.054Z,91.30
2022-11-17T03:13:27.230Z,92.21
2022-11-17T03:16:08.218Z,91.97
2022-11-17T03:18:49.806Z,91.79
2022-11-17T03:21:27.700Z,92.06
2022-11-17T03:24:05.240Z,92.39
2022-11-17T03:26:39.504Z,92.70
2022-11-17T03:29:15.632Z,92.82
2022-11-17T03:31:50.420Z,92.52
2022-11-17T03:34:24.574Z,92.74
2022-11-17T03:36:59.693Z,92.90
2022-11-17T03:39:35.636Z,92.56
2022-11-17T03:42:14.343Z,92.37
2022-11-17T03:44:50.258Z,92.04
2022-11-17T03:47:27.000Z,92.23
2022-11-17T03:50:02.938Z,91.58
2022-11-17T03:52:33.271Z,91.51
2022-11-17T03:55:04.114Z,91.40
2022-11-17T03:57:44.557Z,91.26
2022-11-17T04:00:17.005Z,91.47
2022-11-17T04:02:50.515Z,91.48
2022-11-17T04:05:19.653Z,92.44
2022-11-17T04:07:49.661Z,92.53
2022-11-17T04:10:21.032Z,92.15
2022-11-17T04:13:08.292Z,92.19
2022-11-17T04:15:55.044Z,92.28
2022-11-17T04:18:26.184Z,92.26
2022-11-17T04:20:57.526Z,92.19
2022-11-17T04:23:26.814Z,92.25
2022-11-17T04:26:15.447Z,92.06
2022-11-17T04:28:48.144Z,92.52
2022-11-17T04:31:20.599Z,92.80
2022-11-17T04:33:54.024Z,93.38
2022-11-17T04:36:25.814Z,93.66
2022-11-17T04:38:59.909Z,94.33
2022-11-17T04:41:50.288Z,94.38
2022-11-17T04:44:21.505Z,93.78
2022-11-17T04:46:51.626Z,93.75
2022-11-17T04:49:24.707Z,93.50
2022-11-17T04:51:55.851Z,93.27
2022-11-17T04:54:29.406Z,93.49
2022-11-17T04:56:59.205Z,92.96
2022-11-17T04:59:28.462Z,92.95
2022-11-17T05:02:02.543Z,92.75
2022-11-17T05:04:53.116Z,93.20
2022-11-17T05:07:22.724Z,94.38
2022-11-17T05:09:52.153Z,94.36
2022-11-17T05:12:38.666Z,94.36
2022-11-17T05:15:08.872Z,94.36
2022-11-17T05:17:36.827Z,94.64
2022-11-17T05:20:08.885Z,94.67
2022-11-17T05:22:55.521Z,94.55
2022-11-17T05:25:26.648Z,94.26
2022-11-17T05:27:55.634Z,94.11
2022-11-17T05:30:24.432Z,93.73
2022-11-17T05:32:53.143Z,93.58
2022-11-17T05:35:23.239Z,94.49
2022-11-17T05:37:52.547Z,94.19
2022-11-17T05:40:21.577Z,93.16
2022-11-17T05:42:55.815Z,93.47
2022-11-17T05:45:25.941Z,93.75
2022-11-17T05:47:54.737Z,94.20
2022-11-17T05:50:24.958Z,94.26
2022-11-17T05:52:53.714Z,94.35
2022-11-17T05:55:22.430Z,94.90
2022-11-17T05:57:53.433Z,94.45
2022-11-17T06:00:22.266Z,95.27
2022-11-17T06:02:58.236Z,95.73
2022-11-17T06:05:29.013Z,95.46
2022-11-17T06:07:58.993Z,95.35
2022-11-17T06:10:28.551Z,95.50
2022-11-17T06:12:57.253Z,95.93
2022-11-17T06:15:26.259Z,95.60
2022-11-17T06:18:02.516Z,95.81
2022-11-17T06:20:39.902Z,95.47
2022-11-17T06:23:11.838Z,95.62
2022-11-17T06:25:41.413Z,95.44
2022-11-17T06:28:19.421Z,95.71
2022-11-17T06:30:49.224Z,95.34
2022-11-17T06:33:20.397Z,95.25
2022-11-17T06:35:51.762Z,95.31
2022-11-17T06:38:20.519Z,95.85
2022-11-17T06:40:49.294Z,95.63
2022-11-17T06:43:17.984Z,95.58
2022-11-17T06:45:48.143Z,95.27
2022-11-17T06:48:25.273Z,95.20
2022-11-17T06:50:56.166Z,95.58
2022-11-17T06:53:26.672Z,96.25
2022-11-17T06:56:01.939Z,95.24
2022-11-17T06:58:31.674Z,96.01
2022-11-17T07:01:06.401Z,96.04
2022-11-17T07:03:37.551Z,95.80
2022-11-17T07:06:10.668Z,95.75
2022-11-17T07:08:40.657Z,96.30
2022-11-17T07:11:12.431Z,95.69
2022-11-17T07:13:41.994Z,95.99
2022-11-17T07:16:18.647Z,95.56
2022-11-17T07:18:50.718Z,94.78
2022-11-17T07:21:22.491Z,94.81
2022-11-17T07:23:51.181Z,95.87
2022-11-17T07:26:20.026Z,95.96
2022-11-17T07:28:48.828Z,95.37
2022-11-17T07:31:17.639Z,96.12
2022-11-17T07:33:46.396Z,95.13
2022-11-17T07:36:16.580Z,95.06
2022-11-17T07:38:46.756Z,95.51
2022-11-17T07:41:16.446Z,95.87
2022-11-17T07:43:45.301Z,95.12
2022-11-17T07:46:16.498Z,95.94
2022-11-17T07:48:45.859Z,95.69
2022-11-17T07:51:15.953Z,95.55
2022-11-17T07:53:46.113Z,95.52
2022-11-17T07:56:15.493Z,95.37
2022-11-17T07:58:44.446Z,95.42
2022-11-17T08:01:15.904Z,95.10
2022-11-17T08:03:45.335Z,95.45
2022-11-17T08:06:14.244Z,95.48
2022-11-17T08:08:42.953Z,95.23
2022-11-17T08:11:14.167Z,94.87
2022-11-17T08:13:43.469Z,94.98
2022-11-17T08:16:13.523Z,94.80
2022-11-17T08:18:45.959Z,94.95
2022-11-17T08:21:17.728Z,94.90
2022-11-17T08:23:46.441Z,95.01
2022-11-17T08:26:16.636Z,94.54
2022-11-17T08:28:45.347Z,94.57
2022-11-17T08:31:14.143Z,95.57
2022-11-17T08:33:42.882Z,95.74
2022-11-17T08:36:12.146Z,95.63
2022-11-17T08:38:42.049Z,95.22
2022-11-17T08:41:11.749Z,95.21
2022-11-17T08:43:41.936Z,94.52
2022-11-17T08:46:14.215Z,95.22
2022-11-17T08:48:43.036Z,95.11
2022-11-17T08:51:14.920Z,95.13
2022-11-17T08:53:44.141Z,95.79
2022-11-17T08:56:14.497Z,96.83
2022-11-17T08:58:46.708Z,96.55
2022-11-17T09:01:18.139Z,95.84
2022-11-17T09:03:48.662Z,95.46
2022-11-17T09:06:20.268Z,96.62
2022-11-17T09:08:50.015Z,97.00
2022-11-17T09:11:18.912Z,97.44
2022-11-17T09:13:49.333Z,96.88
2022-11-17T09:16:19.028Z,96.65
2022-11-17T09:18:47.778Z,96.90
2022-11-17T09:21:17.561Z,97.00
2022-11-17T09:23:46.357Z,96.73
2022-11-17T09:26:17.312Z,97.19
2022-11-17T09:28:46.949Z,97.01
2022-11-17T09:31:21.820Z,95.91
2022-11-17T09:33:50.961Z,95.68
2022-11-17T09:36:19.915Z,96.07
2022-11-17T09:38:49.193Z,96.11
2022-11-17T09:41:27.562Z,95.57
2022-11-17T09:44:16.042Z,94.96
2022-11-17T09:47:02.546Z,94.56
2022-11-17T09:49:56.749Z,94.52
2022-11-17T09:52:35.930Z,94.33
2022-11-17T09:55:19.213Z,93.66
2022-11-17T09:57:57.610Z,93.87
2022-11-17T10:00:27.387Z,94.17
2022-11-17T10:02:57.589Z,94.84
2022-11-17T10:05:31.920Z,94.59
2022-11-17T10:08:08.355Z,94.72
2022-11-17T10:10:47.024Z,94.59
2022-11-17T10:13:26.692Z,94.99
2022-11-17T10:16:02.235Z,95.88
2022-11-17T10:18:38.237Z,94.48
2022-11-17T10:21:10.083Z,95.04
2022-11-17T10:23:46.626Z,95.06
2022-11-17T10:26:17.609Z,94.95
2022-11-17T10:28:46.371Z,94.99
2022-11-17T10:31:19.185Z,94.35
2022-11-17T10:33:51.951Z,94.80
2022-11-17T10:36:25.611Z,94.26
2022-11-17T10:38:57.941Z,94.17
2022-11-17T10:41:37.625Z,94.44
2022-11-17T10:44:18.143Z,94.62
2022-11-17T10:47:01.737Z,93.99
2022-11-17T10:49:36.653Z,93.71
2022-11-17T10:52:17.913Z,93.55
2022-11-17T10:54:46.963Z,93.74
2022-11-17T10:57:21.560Z,93.77
2022-11-17T10:59:57.035Z,93.82
2022-11-17T11:02:32.864Z,93.60
2022-11-17T11:05:12.140Z,93.91
2022-11-17T11:07:41.772Z,93.58
2022-11-17T11:10:19.104Z,93.32
2022-11-17T11:12:59.310Z,93.63
2022-11-17T11:15:35.529Z,93.12
2022-11-17T11:18:12.684Z,94.04
2022-11-17T11:20:56.989Z,94.30
2022-11-17T11:23:42.661Z,93.85
2022-11-17T11:26:35.809Z,93.38
2022-11-17T11:29:24.361Z,93.57
2022-11-17T11:32:18.148Z,93.78
2022-11-17T11:35:25.283Z,93.11
2022-11-17T11:38:12.967Z,94.16
2022-11-17T11:40:47.387Z,93.83
2022-11-17T11:43:40.451Z,94.30
2022-11-17T11:46:19.001Z,94.45
2022-11-17T11:48:53.353Z,94.33
2022-11-17T11:51:29.950Z,94.25
2022-11-17T11:54:11.214Z,94.36
2022-11-17T11:56:46.123Z,94.17
2022-11-17T11:59:21.025Z,94.46
2022-11-17T12:02:03.704Z,94.72
2022-11-17T12:04:45.429Z,94.85
2022-11-17T12:07:24.391Z,95.04
2022-11-17T12:10:03.533Z,94.42
2022-11-17T12:12:36.648Z,94.44
2022-11-17T12:15:33.240Z,94.76
2022-11-17T12:18:08.205Z,95.83
2022-11-17T12:20:56.655Z,97.17
2022-11-17T12:23:55.969Z,96.56
2022-11-17T12:26:30.085Z,96.79
2022-11-17T12:29:31.995Z,97.92
2022-11-17T12:32:03.417Z,98.35
2022-11-17T12:34:36.077Z,98.24
2022-11-17T12:37:30.180Z,98.82
2022-11-17T12:40:02.927Z,99.30
2022-11-17T12:42:36.110Z,99.28
2022-11-17T12:45:13.074Z,100.00
2022-11-17T12:47:54.783Z,100.00
2022-11-17T12:51:04.460Z,100.00
2022-11-17T12:53:52.513Z,99.49
2022-11-17T12:56:48.804Z,99.17
2022-11-17T12:59:47.459Z,98.86
2022-11-17T13:02:41.857Z,98.40
2022-11-17T13:05:21.691Z,98.05
2022-11-17T13:07:50.501Z,98.04
2022-11-17T13:10:29.483Z,97.95
2022-11-17T13:13:12.239Z,98.07
2022-11-17T13:15:47.009Z,98.00
2022-11-17T13:18:29.226Z,97.76
2022-11-17T13:20:58.998Z,97.19
2022-11-17T13:23:30.443Z,97.27
2022-11-17T13:26:21.940Z,96.81
2022-11-17T13:29:04.140Z,97.69
2022-11-17T13:31:35.182Z,97.15
2022-11-17T13:34:15.769Z,97.22
2022-11-17T13:36:55.838Z,96.17
2022-11-17T13:39:27.875Z,96.79
2022-11-17T13:41:59.230Z,96.45
2022-11-17T13:44:30.160Z,96.17
2022-11-17T13:47:21.128Z,96.47
2022-11-17T13:49:49.961Z,97.15
2022-11-17T13:52:40.497Z,95.85
2022-11-17T13:55:21.100Z,96.42
2022-11-17T13:57:58.440Z,95.95
2022-11-17T14:00:28.546Z,96.61
2022-11-17T14:03:00.647Z,96.43
2022-11-17T14:05:31.878Z,96.32
2022-11-17T14:08:30.584Z,95.99
2022-11-17T14:11:14.738Z,95.79
2022-11-17T14:13:46.928Z,95.57
2022-11-17T14:16:27.131Z,95.42
2022-11-17T14:19:26.785Z,94.84
2022-11-17T14:22:06.481Z,94.67
2022-11-17T14:24:36.247Z,95.30
2022-11-17T14:27:14.869Z,95.43
2022-11-17T14:29:43.600Z,95.98
2022-11-17T14:32:13.074Z,95.67
2022-11-17T14:34:43.531Z,95.53
2022-11-17T14:37:12.754Z,95.81
2022-11-17T14:39:41.772Z,95.97
2022-11-17T14:42:12.237Z,95.48
2022-11-17T14:44:41.310Z,95.53
2022-11-17T14:47:10.172Z,95.50
2022-11-17T14:49:38.956Z,95.74
2022-11-17T14:52:09.193Z,95.47
2022-11-17T14:54:37.852Z,95.09
2022-11-17T14:57:06.624Z,96.38
2022-11-17T14:59:35.468Z,96.49
2022-11-17T15:02:04.326Z,96.21
2022-11-17T15:04:50.094Z,95.77
2022-11-17T15:07:21.534Z,95.70
2022-11-17T15:09:50.371Z,95.17
2022-11-17T15:12:19.164Z,94.95
2022-11-17T15:14:48.697Z,94.67
2022-11-17T15:17:17.700Z,94.25
2022-11-17T15:19:46.708Z,95.17
2022-11-17T15:22:15.569Z,94.75
2022-11-17T15:24:46.790Z,95.04
2022-11-17T15:27:16.379Z,94.68
2022-11-17T15:29:45.210Z,94.89
2022-11-17T15:32:14.039Z,94.67
2022-11-17T15:34:42.945Z,94.42
2022-11-17T15:37:12.009Z,94.04
2022-11-17T15:39:41.066Z,93.68
2022-11-17T15:42:11.313Z,94.35
2022-11-17T15:44:40.131Z,94.79
2022-11-17T15:47:09.191Z,94.46
2022-11-17T15:49:38.085Z,94.21
2022-11-17T15:52:10.108Z,94.20
2022-11-17T15:54:38.864Z,94.53
2022-11-17T15:57:08.266Z,94.52
2022-11-17T15:59:38.487Z,94.47
2022-11-17T16:02:10.472Z,94.43
2022-11-17T16:04:41.152Z,94.15
2022-11-17T16:07:12.984Z,94.66
2022-11-17T16:09:43.908Z,94.16
2022-11-17T16:12:17.025Z,95.26
2022-11-17T16:14:47.362Z,95.09
2022-11-17T16:17:16.283Z,94.85
2022-11-17T16:19:45.082Z,95.54
2022-11-17T16:22:17.121Z,94.70
2022-11-17T16:24:45.985Z,94.70
2022-11-17T16:27:14.768Z,94.81
2022-11-17T16:29:43.692Z,95.14
2022-11-17T16:32:13.858Z,94.99
2022-11-17T16:34:43.602Z,95.28
2022-11-17T16:37:12.370Z,94.81
2022-11-17T16:39:41.423Z,95.66
2022-11-17T16:42:11.506Z,94.97
2022-11-17T16:44:40.321Z,95.25
2022-11-17T16:47:09.156Z,94.86
2022-11-17T16:49:39.636Z,95.17
2022-11-17T16:52:08.633Z,94.94
2022-11-17T16:54:37.604Z,94.77
2022-11-17T16:57:06.457Z,94.23
2022-11-17T16:59:35.532Z,94.88
2022-11-17T17:02:04.728Z,94.77
2022-11-17T17:04:33.687Z,94.47
2022-11-17T17:07:04.137Z,94.22
2022-11-17T17:09:33.430Z,94.20
2022-11-17T17:12:02.379Z,94.36
2022-11-17T17:14:31.273Z,94.18
2022-11-17T17:16:59.997Z,94.04
2022-11-17T17:19:29.684Z,94.09
2022-11-17T17:21:59.556Z,94.03
2022-11-17T17:24:30.130Z,94.14
2022-11-17T17:26:59.176Z,93.98
2022-11-17T17:29:28.081Z,94.52
2022-11-17T17:31:56.848Z,94.13
2022-11-17T17:34:27.057Z,94.15
2022-11-17T17:36:56.243Z,94.28
2022-11-17T17:39:25.112Z,93.82
2022-11-17T17:41:55.345Z,93.88
2022-11-17T17:44:24.291Z,94.03
2022-11-17T17:46:53.059Z,93.87
2022-11-17T17:49:22.207Z,94.35
2022-11-17T17:51:51.774Z,94.06
2022-11-17T17:54:24.098Z,94.07
2022-11-17T17:56:57.317Z,94.05
2022-11-17T17:59:26.787Z,93.75
2022-11-17T18:01:55.858Z,93.82
2022-11-17T18:04:24.862Z,94.69
2022-11-17T18:06:55.917Z,93.87
2022-11-17T18:09:24.956Z,94.57
2022-11-17T18:11:56.178Z,94.54
2022-11-17T18:14:25.340Z,94.39
2022-11-17T18:16:55.163Z,93.79
2022-11-17T18:19:29.799Z,93.58
2022-11-17T18:22:01.625Z,94.16
2022-11-17T18:24:30.407Z,93.46
2022-11-17T18:27:00.636Z,93.03
2022-11-17T18:29:30.174Z,93.20
2022-11-17T18:32:04.616Z,92.84
2022-11-17T18:34:34.600Z,92.50
2022-11-17T18:37:04.123Z,92.91
2022-11-17T18:39:33.533Z,92.30
2022-11-17T18:42:04.218Z,92.45
2022-11-17T18:44:33.559Z,91.54
2022-11-17T18:47:03.299Z,92.42
2022-11-17T18:49:34.599Z,92.13
2022-11-17T18:52:04.552Z,92.78
2022-11-17T18:54:33.878Z,92.69
2022-11-17T18:57:04.136Z,92.52
2022-11-17T18:59:32.924Z,92.80
2022-11-17T19:02:01.682Z,92.59
2022-11-17T19:04:34.685Z,92.29
2022-11-17T19:07:04.132Z,92.40
2022-11-17T19:09:33.427Z,92.48
2022-11-17T19:12:04.656Z,92.25
2022-11-17T19:14:34.025Z,92.93
2022-11-17T19:17:03.101Z,92.60
2022-11-17T19:19:31.849Z,92.31
2022-11-17T19:22:00.733Z,92.71
2022-11-17T19:24:29.571Z,92.72
2022-11-17T19:26:58.307Z,92.95
2022-11-17T19:29:28.647Z,92.49
2022-11-17T19:31:57.458Z,92.26
2022-11-17T19:34:26.277Z,91.98
2022-11-17T19:36:55.071Z,91.96
2022-11-17T19:39:23.867Z,92.15
2022-11-17T19:41:53.385Z,92.00
2022-11-17T19:47:28.373Z,91.83
2022-11-17T19:49:57.429Z,91.50
2022-11-17T19:52:26.717Z,91.80
2022-11-17T19:54:55.755Z,91.42
2022-11-17T19:57:24.941Z,91.07
2022-11-17T19:59:59.601Z,90.74
2022-11-17T20:02:32.695Z,90.69
2022-11-17T20:05:03.276Z,90.72
2022-11-17T20:07:35.451Z,90.20
2022-11-17T20:10:04.589Z,90.46
2022-11-17T20:12:35.500Z,90.77
2022-11-17T20:15:06.206Z,90.80
2022-11-17T20:17:36.386Z,90.67
2022-11-17T20:20:05.892Z,90.26
2022-11-17T20:22:34.589Z,90.47
2022-11-17T20:25:05.495Z,90.63
2022-11-17T20:27:34.475Z,90.56
2022-11-17T20:30:03.529Z,90.43
2022-11-17T20:32:37.056Z,90.41
2022-11-17T20:35:06.613Z,90.69
2022-11-17T20:37:35.288Z,90.47
2022-11-17T20:40:04.272Z,90.39
2022-11-17T20:42:33.030Z,90.76
2022-11-17T20:45:01.794Z,90.92
2022-11-17T20:47:31.640Z,90.59
2022-11-17T20:50:02.059Z,90.68
2022-11-17T20:52:32.719Z,90.89
2022-11-17T20:55:01.443Z,90.92
2022-11-17T20:57:30.131Z,90.95
2022-11-17T20:59:59.460Z,90.90
2022-11-17T21:02:28.316Z,90.83
2022-11-17T21:04:57.290Z,90.60
2022-11-17T21:07:27.452Z,91.21
2022-11-17T21:09:56.208Z,91.05
2022-11-17T21:12:24.969Z,91.16
2022-11-17T21:14:53.778Z,91.22
2022-11-17T21:17:40.255Z,91.23
2022-11-17T21:20:10.479Z,91.08
2022-11-17T21:22:40.580Z,90.97
2022-11-17T21:25:10.448Z,91.08
2022-11-17T21:27:39.101Z,91.43
2022-11-17T21:30:09.978Z,91.27
2022-11-17T21:32:39.058Z,91.23
2022-11-17T21:35:08.253Z,91.16
2022-11-17T21:37:37.339Z,91.42
2022-11-17T21:40:09.596Z,91.35
2022-11-17T21:42:38.553Z,91.58
2022-11-17T21:45:09.190Z,91.50
2022-11-17T21:47:38.077Z,91.43
2022-11-17T21:50:08.394Z,91.45
2022-11-17T21:52:37.146Z,91.73
2022-11-17T21:55:09.414Z,91.73
2022-11-17T21:57:38.255Z,91.73
2022-11-17T22:00:08.537Z,91.82
2022-11-17T22:02:37.228Z,92.02
2022-11-17T22:05:06.929Z,92.43
2022-11-17T22:07:35.771Z,92.17
2022-11-17T22:10:06.774Z,92.15
2022-11-17T22:12:35.578Z,92.60
2022-11-17T22:15:08.695Z,92.22
2022-11-17T22:17:40.259Z,91.79
2022-11-17T22:20:10.780Z,92.08
2022-11-17T22:22:39.437Z,92.08
2022-11-17T22:25:37.479Z,91.89
2022-11-17T22:27:59.198Z,91.76
2022-11-17T22:30:27.928Z,91.45
2022-11-17T22:32:56.656Z,91.46
2022-11-17T22:35:25.488Z,90.90
2022-11-17T22:37:54.246Z,90.44
2022-11-17T22:40:24.405Z,90.88
2022-11-17T22:42:54.239Z,90.84
2022-11-17T22:45:23.012Z,90.40
2022-11-17T22:47:51.828Z,90.26
2022-11-17T22:50:20.502Z,90.09
2022-11-17T22:52:49.714Z,89.77
2022-11-17T22:55:18.695Z,90.29
2022-11-17T22:57:49.111Z,90.35
2022-11-17T23:00:19.135Z,90.29
2022-11-17T23:02:50.141Z,90.24
2022-11-17T23:05:19.208Z,90.31
2022-11-17T23:07:48.012Z,90.09
2022-11-17T23:10:17.527Z,90.89
2022-11-17T23:12:47.660Z,90.64
2022-11-17T23:15:16.723Z,90.90
2022-11-17T23:17:45.555Z,90.98
2022-11-17T23:20:14.325Z,90.83
2022-11-17T23:22:43.115Z,91.32
2022-11-17T23:25:12.011Z,91.81
2022-11-17T23:27:40.691Z,91.41
2022-11-17T23:30:12.827Z,91.44
2022-11-17T23:32:41.598Z,91.56
2022-11-17T23:35:10.881Z,91.38
2022-11-17T23:37:39.872Z,91.43
2022-11-17T23:40:10.759Z,91.54
2022-11-17T23:42:43.018Z,91.39
2022-11-17T23:45:14.220Z,91.64
2022-11-17T23:47:42.918Z,91.84
2022-11-17T23:50:11.969Z,91.60
2022-11-17T23:52:40.645Z,91.46
2022-11-17T23:55:10.002Z,91.46
2022-11-17T23:57:39.401Z,91.46
